Savannah — WDD9810 — position and weather

sailwx.info

Track history (hours):
 
Tides and Currents Weather Stations Pressure Air Temp Water Temp Dewpoint Dewpoint Depression Visibility Wind Speed Wind Dir Waves Ship Positions

Savannah

Owner: Crescent Towing & Salvage Co Inc, New Orleans, LA. More information available from US FCC via Universal Licensing System and Coast Guard Vessel Documentation Center.

Last reported at 2017-Dec-11 16:58 UTC. Time now 2017-Dec-12 02:51 UTC.
Position N 32°07' W 081°08'.

Length 28 m; draft 4.5 m.

Type: Tug. MMSI: 367316630.

Date/timePositionNaut miles runAvg speedWind from/ knotsBaromVisibWave heightAir tempDewpointWater temp
2017-Dec-11 16:58N 32°07' W 081°08'0 0.2
2017-Dec-11 16:28N 32°07' W 081°08'2 5.5
2017-Dec-11 16:00N 32°05' W 081°06'2 3.2
2017-Dec-11 15:27N 32°05' W 081°04'0 0.0
2017-Dec-11 14:57N 32°05' W 081°04'0 0.0
2017-Dec-11 14:27N 32°05' W 081°04'0 0.0
2017-Dec-11 13:57N 32°05' W 081°04'0 0.0
2017-Dec-11 13:27N 32°05' W 081°04'0 0.0
2017-Dec-11 12:44N 32°05' W 081°04'0 0.0
2017-Dec-11 12:27N 32°05' W 081°04'0 0.0
2017-Dec-11 11:57N 32°05' W 081°04'0 0.0
2017-Dec-11 11:27N 32°05' W 081°04'0 0.0
2017-Dec-11 10:57N 32°05' W 081°04'0 0.0
2017-Dec-11 10:27N 32°05' W 081°04'0 0.0
2017-Dec-11 09:57N 32°05' W 081°04'0 0.0
2017-Dec-11 09:26N 32°05' W 081°04'0 0.0
2017-Dec-11 08:56N 32°05' W 081°04'0 0.0
2017-Dec-11 08:26N 32°05' W 081°04'0 0.0
2017-Dec-11 07:57N 32°05' W 081°04'0 0.0
2017-Dec-11 06:57N 32°05' W 081°04'0 0.0
2017-Dec-11 06:27N 32°05' W 081°04'0 0.0
2017-Dec-11 05:57N 32°05' W 081°04'0 0.0
2017-Dec-11 05:27N 32°05' W 081°04'0 0.0
2017-Dec-11 04:57N 32°05' W 081°04'0 0.0
2017-Dec-11 04:27N 32°05' W 081°04'0 0.0
2017-Dec-11 03:57N 32°05' W 081°04'0 0.0
2017-Dec-11 03:26N 32°05' W 081°04'0 0.0
2017-Dec-11 02:56N 32°05' W 081°04'0 0.0
2017-Dec-11 02:26N 32°05' W 081°04'0 0.0
2017-Dec-11 01:56N 32°05' W 081°04'0 0.0
2017-Dec-11 01:20N 32°05' W 081°04'0 0.0
2017-Dec-11 00:56N 32°05' W 081°04'0 0.0
2017-Dec-11 00:26N 32°05' W 081°04'0 0.0
2017-Dec-10 23:50N 32°05' W 081°04'0 0.0
2017-Dec-10 23:20N 32°05' W 081°04'0 0.0
2017-Dec-10 22:50N 32°05' W 081°04'0 0.0
2017-Dec-10 21:56N 32°05' W 081°04'0 0.0
2017-Dec-10 21:26N 32°05' W 081°04'0 0.0
2017-Dec-10 20:50N 32°05' W 081°04'0 0.0
2017-Dec-10 20:26N 32°05' W 081°04'0 0.0
2017-Dec-10 19:56N 32°05' W 081°04'0 0.0
2017-Dec-10 19:30N 32°05' W 081°04'4 7.5
2017-Dec-10 19:00N 32°07' W 081°08'0 0.7
2017-Dec-10 18:30N 32°07' W 081°08'1 1.3
2017-Dec-10 18:00N 32°08' W 081°08'0 0.3
2017-Dec-10 17:27N 32°08' W 081°08'0 0.9
2017-Dec-10 17:00N 32°08' W 081°08'2 3.0
2017-Dec-10 16:31N 32°07' W 081°07'0 0.2
2017-Dec-10 15:59N 32°07' W 081°07'0 0.0
2017-Dec-10 15:29N 32°07' W 081°07'0 0.0
2017-Dec-10 14:59N 32°07' W 081°07'0 0.0
2017-Dec-10 14:29N 32°07' W 081°07'0 0.0
2017-Dec-10 13:59N 32°07' W 081°07'0 0.0
2017-Dec-10 13:29N 32°07' W 081°07'0 0.0
2017-Dec-10 12:53N 32°07' W 081°07'0 0.0
2017-Dec-10 12:30N 32°07' W 081°07'2 2.9
2017-Dec-10 11:56N 32°08' W 081°09'0 0.0
2017-Dec-10 11:26N 32°08' W 081°09'2 3.5
2017-Dec-10 11:00N 32°07' W 081°07'4 6.7
2017-Dec-10 10:28N 32°05' W 081°04'0 0.0
2017-Dec-10 09:58N 32°05' W 081°04'0 0.0
2017-Dec-10 09:29N 32°05' W 081°04'0 0.0
2017-Dec-10 08:58N 32°05' W 081°04'0 0.0
2017-Dec-10 08:28N 32°05' W 081°04'0 0.0
2017-Dec-10 07:58N 32°05' W 081°04'1 1.7
2017-Dec-10 07:28N 32°05' W 081°03'0 0.0
2017-Dec-10 06:58N 32°05' W 081°03'1 1.9
2017-Dec-10 06:30N 32°05' W 081°02'0 0.9
2017-Dec-10 06:00N 32°05' W 081°02'1 2.5
2017-Dec-10 05:30N 32°05' W 081°04'0 0.0
2017-Dec-10 05:00N 32°05' W 081°04'0 0.0
2017-Dec-10 04:30N 32°05' W 081°04'0 0.0
2017-Dec-10 04:00N 32°05' W 081°04'0 0.0
2017-Dec-10 03:30N 32°05' W 081°04'0 0.0
2017-Dec-10 03:00N 32°05' W 081°04'0 0.0
2017-Dec-10 02:30N 32°05' W 081°04'0 0.0
2017-Dec-10 02:00N 32°05' W 081°04'0 0.0
2017-Dec-10 01:30N 32°05' W 081°04'0 0.0
2017-Dec-10 00:54N 32°05' W 081°04'0 0.0
2017-Dec-10 00:30N 32°05' W 081°04'0 0.0
2017-Dec-09 23:54N 32°05' W 081°04'0 0.0
2017-Dec-09 23:30N 32°05' W 081°04'0 0.0
2017-Dec-09 23:00N 32°05' W 081°04'0 0.0
2017-Dec-09 22:30N 32°05' W 081°04'0 0.0
2017-Dec-09 22:00N 32°05' W 081°04'0 0.0
2017-Dec-09 21:30N 32°05' W 081°04'0 0.0
2017-Dec-09 21:00N 32°05' W 081°04'0 0.0
2017-Dec-09 20:30N 32°05' W 081°04'0 0.0
2017-Dec-09 20:00N 32°05' W 081°04'0 0.0
2017-Dec-09 19:30N 32°05' W 081°04'0 0.0
2017-Dec-09 19:00N 32°05' W 081°04'0 0.0
2017-Dec-09 18:30N 32°05' W 081°04'0 0.0
2017-Dec-09 18:00N 32°05' W 081°04'0 0.0
2017-Dec-09 17:30N 32°05' W 081°04'0 0.0
2017-Dec-09 17:00N 32°05' W 081°04'0 0.0
2017-Dec-09 16:30N 32°05' W 081°04'0 0.0
2017-Dec-09 16:00N 32°05' W 081°04'0 0.0
2017-Dec-09 15:18N 32°05' W 081°04'0 0.0
2017-Dec-09 15:00N 32°05' W 081°04'0 0.0
2017-Dec-09 14:30N 32°05' W 081°04'0 0.0
2017-Dec-09 14:00N 32°05' W 081°04'0 0.0
2017-Dec-09 13:30N 32°05' W 081°04'0 0.0
2017-Dec-09 12:54N 32°05' W 081°04'0 0.0
2017-Dec-09 12:30N 32°05' W 081°04'0 0.0
2017-Dec-09 12:00N 32°05' W 081°04'2 3.5
2017-Dec-09 11:28N 32°05' W 081°06'1 2.2
2017-Dec-09 11:00N 32°06' W 081°07'2 4.5
2017-Dec-09 10:30N 32°08' W 081°08'0 0.5
2017-Dec-09 10:00N 32°08' W 081°08'3 5.4
2017-Dec-09 09:30N 32°06' W 081°06'1 2.2
2017-Dec-09 09:00N 32°05' W 081°05'1 2.3
2017-Dec-09 08:29N 32°05' W 081°04'0 0.0
2017-Dec-09 07:53N 32°05' W 081°04'0 0.0
2017-Dec-09 07:23N 32°05' W 081°04'0 0.0
2017-Dec-09 06:59N 32°05' W 081°04'0 0.0
2017-Dec-09 06:29N 32°05' W 081°04'0 0.0
2017-Dec-09 05:59N 32°05' W 081°04'0 0.0
2017-Dec-09 05:29N 32°05' W 081°04'0 0.0
2017-Dec-09 04:59N 32°05' W 081°04'0 0.0
2017-Dec-09 04:29N 32°05' W 081°04'0 0.0
2017-Dec-09 03:59N 32°05' W 081°04'0 0.0
2017-Dec-09 03:29N 32°05' W 081°04'0 0.0
2017-Dec-09 02:47N 32°05' W 081°04'0 0.0
2017-Dec-09 02:29N 32°05' W 081°04'0 0.0
2017-Dec-09 01:59N 32°05' W 081°04'0 0.0
2017-Dec-09 01:29N 32°05' W 081°04'0 0.0
2017-Dec-09 00:59N 32°05' W 081°04'0 0.0
2017-Dec-09 00:29N 32°05' W 081°04'0 0.0
2017-Dec-08 23:59N 32°05' W 081°04'0 0.0
2017-Dec-08 23:17N 32°05' W 081°04'0 0.0
2017-Dec-08 22:59N 32°05' W 081°04'0 0.0
2017-Dec-08 22:29N 32°05' W 081°04'0 0.0
2017-Dec-08 21:59N 32°05' W 081°04'0 0.0
2017-Dec-08 21:29N 32°05' W 081°04'0 0.0
2017-Dec-08 20:59N 32°05' W 081°04'0 0.0
2017-Dec-08 20:29N 32°05' W 081°04'0 0.0
2017-Dec-08 19:59N 32°05' W 081°04'0 0.0
2017-Dec-08 19:29N 32°05' W 081°04'0 0.0
2017-Dec-08 18:59N 32°05' W 081°04'0 0.0
2017-Dec-08 18:29N 32°05' W 081°04'0 0.0
2017-Dec-08 17:59N 32°05' W 081°04'3 6.1
2017-Dec-08 17:30N 32°06' W 081°07'1 0.9
2017-Dec-08 16:54N 32°07' W 081°07'0 0.0
2017-Dec-08 16:30N 32°07' W 081°07'0 0.0
2017-Dec-08 16:00N 32°07' W 081°07'0 0.0
2017-Dec-08 15:30N 32°07' W 081°07'0 0.0
2017-Dec-08 15:00N 32°07' W 081°07'0 0.0
2017-Dec-08 14:30N 32°07' W 081°07'0 0.0
2017-Dec-08 14:00N 32°07' W 081°07'0 0.0
2017-Dec-08 13:30N 32°07' W 081°07'0 0.0
2017-Dec-08 13:00N 32°07' W 081°07'0 0.0
2017-Dec-08 12:24N 32°07' W 081°07'0 0.0
2017-Dec-08 12:00N 32°07' W 081°07'0 0.0
2017-Dec-08 11:24N 32°07' W 081°07'0 0.0
2017-Dec-08 11:00N 32°07' W 081°07'0 0.0
2017-Dec-08 10:30N 32°07' W 081°07'0 0.0
2017-Dec-08 09:54N 32°07' W 081°07'0 0.0
2017-Dec-08 09:24N 32°07' W 081°07'0 0.0
2017-Dec-08 09:00N 32°07' W 081°07'0 0.0
2017-Dec-08 08:30N 32°07' W 081°07'0 0.0
2017-Dec-08 08:00N 32°07' W 081°07'0 0.0
2017-Dec-08 07:30N 32°07' W 081°07'0 0.0
2017-Dec-08 07:00N 32°07' W 081°07'1 1.6
2017-Dec-08 06:30N 32°06' W 081°07'0 0.8
2017-Dec-08 05:58N 32°06' W 081°06'1 2.7
2017-Dec-08 05:30N 32°05' W 081°05'1 2.0
2017-Dec-08 04:55N 32°05' W 081°04'0 0.0
2017-Dec-08 04:25N 32°05' W 081°04'0 0.0
2017-Dec-08 03:55N 32°05' W 081°04'0 0.0
2017-Dec-08 03:25N 32°05' W 081°04'0 0.0
2017-Dec-08 02:55N 32°05' W 081°04'0 0.0
2017-Dec-08 02:25N 32°05' W 081°04'0 0.0
2017-Dec-08 01:55N 32°05' W 081°04'0 0.0
2017-Dec-08 01:25N 32°05' W 081°04'0 0.0
2017-Dec-08 00:55N 32°05' W 081°04'0 0.0
2017-Dec-08 00:25N 32°05' W 081°04'0 0.0
2017-Dec-07 23:55N 32°05' W 081°04'0 0.0
2017-Dec-07 23:07N 32°05' W 081°04'0 0.0
2017-Dec-07 22:49N 32°05' W 081°04'0 0.0
2017-Dec-07 22:25N 32°05' W 081°04'0 0.0
2017-Dec-07 21:49N 32°05' W 081°04'0 0.0
2017-Dec-07 21:25N 32°05' W 081°04'0 0.0
2017-Dec-07 20:55N 32°05' W 081°04'0 0.0
2017-Dec-07 20:25N 32°05' W 081°04'0 0.0
2017-Dec-07 19:55N 32°05' W 081°04'0 0.0
2017-Dec-07 19:25N 32°05' W 081°04'0 0.0
2017-Dec-07 18:49N 32°05' W 081°04'0 0.0
2017-Dec-07 18:25N 32°05' W 081°04'0 0.0
2017-Dec-07 17:55N 32°05' W 081°04'0 0.0
2017-Dec-07 17:19N 32°05' W 081°04'0 0.0
2017-Dec-07 16:55N 32°05' W 081°04'0 0.0
2017-Dec-07 16:25N 32°05' W 081°04'0 0.0
2017-Dec-07 15:55N 32°05' W 081°04'0 0.0
2017-Dec-07 15:27N 32°05' W 081°04'0 0.0
2017-Dec-07 14:57N 32°05' W 081°04'0 0.0
2017-Dec-07 14:27N 32°05' W 081°04'1 2.5
2017-Dec-07 14:00N 32°05' W 081°05'1 2.3
2017-Dec-07 13:27N 32°06' W 081°06'1 1.6
2017-Dec-07 13:00N 32°05' W 081°06'2 3.1
2017-Dec-07 12:28N 32°05' W 081°04'0 0.0
2017-Dec-07 11:52N 32°05' W 081°04'0 0.0
2017-Dec-07 11:27N 32°05' W 081°04'0 0.0
2017-Dec-07 10:51N 32°05' W 081°04'1 3.9
2017-Dec-07 10:31N 32°05' W 081°05'3 5.6
2017-Dec-07 09:55N 32°07' W 081°08'1 2.9
2017-Dec-07 09:30N 32°07' W 081°07'1 2.7
2017-Dec-07 08:59N 32°05' W 081°06'0 0.0
2017-Dec-07 08:23N 32°05' W 081°06'0 0.0
2017-Dec-07 07:59N 32°05' W 081°06'0 0.0
2017-Dec-07 07:23N 32°05' W 081°06'0 0.0
2017-Dec-07 06:53N 32°05' W 081°06'0 0.0
2017-Dec-07 06:29N 32°05' W 081°06'0 0.0
2017-Dec-07 05:59N 32°05' W 081°06'0 0.0
2017-Dec-07 05:31N 32°05' W 081°06'0 0.4
2017-Dec-07 04:59N 32°05' W 081°06'2 3.3
2017-Dec-07 04:29N 32°07' W 081°07'3 5.7
2017-Dec-07 04:00N 32°05' W 081°05'1 1.5
2017-Dec-07 03:25N 32°05' W 081°04'0 0.0
2017-Dec-07 02:55N 32°05' W 081°04'0 0.0
2017-Dec-07 02:19N 32°05' W 081°04'0 0.0
2017-Dec-07 01:55N 32°05' W 081°04'0 0.0
2017-Dec-07 01:25N 32°05' W 081°04'0 0.0
2017-Dec-07 00:55N 32°05' W 081°04'0 0.0
2017-Dec-07 00:25N 32°05' W 081°04'0 0.0
2017-Dec-06 23:55N 32°05' W 081°04'0 0.0
2017-Dec-06 23:25N 32°05' W 081°04'0 0.0
2017-Dec-06 22:55N 32°05' W 081°04'0 0.0
2017-Dec-06 22:25N 32°05' W 081°04'0 0.0
2017-Dec-06 21:49N 32°05' W 081°04'0 0.0
2017-Dec-06 21:13N 32°05' W 081°04'0 0.0
2017-Dec-06 20:55N 32°05' W 081°04'  
2017-Dec-04 10:23N 32°05' W 081°04'0 0.0
2017-Dec-04 09:47N 32°05' W 081°04'0 0.0
2017-Dec-04 09:29N 32°05' W 081°04'0 0.0
2017-Dec-04 08:59N 32°05' W 081°04'0 0.0
2017-Dec-04 08:29N 32°05' W 081°04'0 0.0
2017-Dec-04 07:59N 32°05' W 081°04'0 0.0
2017-Dec-04 07:29N 32°05' W 081°04'0 0.0
2017-Dec-04 06:59N 32°05' W 081°04'0 0.0
2017-Dec-04 06:29N 32°05' W 081°04'0 0.0
2017-Dec-04 05:59N 32°05' W 081°04'0 0.0
2017-Dec-04 05:29N 32°05' W 081°04'0 0.0
2017-Dec-04 04:59N 32°05' W 081°04'0 0.0
2017-Dec-04 04:29N 32°05' W 081°04'0 0.0
2017-Dec-04 03:59N 32°05' W 081°04'0 0.0
2017-Dec-04 03:29N 32°05' W 081°04'0 0.0
2017-Dec-04 02:59N 32°05' W 081°04'0 0.0
2017-Dec-04 02:29N 32°05' W 081°04'0 0.0
2017-Dec-04 01:59N 32°05' W 081°04'0 0.0
2017-Dec-04 01:29N 32°05' W 081°04'0 0.0
2017-Dec-04 00:53N 32°05' W 081°04'0 0.0
2017-Dec-04 00:17N 32°05' W 081°04'0 0.0
2017-Dec-03 23:59N 32°05' W 081°04'0 0.0
2017-Dec-03 23:23N 32°05' W 081°04'0 0.0
2017-Dec-03 22:41N 32°05' W 081°04'0 0.0
2017-Dec-03 22:29N 32°05' W 081°04'1 2.9
2017-Dec-03 22:00N 32°05' W 081°06'1 2.0
2017-Dec-03 21:30N 32°06' W 081°06'2 4.2
2017-Dec-03 20:57N 32°08' W 081°08'1 1.0
2017-Dec-03 20:28N 32°08' W 081°08'1 3.3
2017-Dec-03 20:00N 32°07' W 081°07'3 5.2
2017-Dec-03 19:30N 32°05' W 081°05'1 2.1
2017-Dec-03 18:59N 32°05' W 081°04'0 0.0
2017-Dec-03 18:29N 32°05' W 081°04'0 0.0
2017-Dec-03 17:59N 32°05' W 081°04'0 0.0
2017-Dec-03 17:29N 32°05' W 081°04'0 0.0
2017-Dec-03 16:59N 32°05' W 081°04'0 0.0
2017-Dec-03 16:29N 32°05' W 081°04'1 1.6
2017-Dec-03 16:00N 32°05' W 081°05'3 6.4
2017-Dec-03 15:30N 32°07' W 081°08'1 1.0
2017-Dec-03 14:56N 32°07' W 081°08'0 0.3
2017-Dec-03 14:30N 32°07' W 081°08'4 8.0
2017-Dec-03 14:00N 32°05' W 081°04'0 0.4
2017-Dec-03 13:30N 32°05' W 081°04'0 0.0
2017-Dec-03 13:00N 32°05' W 081°04'0 0.0
2017-Dec-03 12:30N 32°05' W 081°04'0 0.0
2017-Dec-03 12:00N 32°05' W 081°04'0 0.0
2017-Dec-03 11:30N 32°05' W 081°04'0 0.0
2017-Dec-03 10:53N 32°05' W 081°04'0 0.0
2017-Dec-03 10:30N 32°05' W 081°04'0 0.0
2017-Dec-03 10:00N 32°05' W 081°04'0 0.0
2017-Dec-03 09:30N 32°05' W 081°04'0 0.0
2017-Dec-03 09:00N 32°05' W 081°04'0 0.0
2017-Dec-03 08:24N 32°05' W 081°04'0 0.0
2017-Dec-03 08:00N 32°05' W 081°04'0 0.0
2017-Dec-03 07:30N 32°05' W 081°04'0 0.0
2017-Dec-03 07:00N 32°05' W 081°04'0 0.0
2017-Dec-03 06:30N 32°05' W 081°04'0 0.0
2017-Dec-03 05:54N 32°05' W 081°04'0 0.0
2017-Dec-03 05:30N 32°05' W 081°04'0 0.0
2017-Dec-03 04:59N 32°05' W 081°04'0 0.0
2017-Dec-03 04:30N 32°05' W 081°04'0 0.0
2017-Dec-03 04:00N 32°05' W 081°04'0 0.0
2017-Dec-03 03:30N 32°05' W 081°04'0 0.0
2017-Dec-03 03:00N 32°05' W 081°04'0 0.0
2017-Dec-03 02:30N 32°05' W 081°04'0 0.0
2017-Dec-03 02:00N 32°05' W 081°04'0 0.0
2017-Dec-03 01:30N 32°05' W 081°04'0 0.0
2017-Dec-03 01:00N 32°05' W 081°04'0 0.0
2017-Dec-03 00:24N 32°05' W 081°04'0 0.0
2017-Dec-03 00:00N 32°05' W 081°04'0 0.0
2017-Dec-02 23:30N 32°05' W 081°04'0 0.0
2017-Dec-02 23:00N 32°05' W 081°04'0 0.0
2017-Dec-02 22:30N 32°05' W 081°04'0 0.0
2017-Dec-02 21:59N 32°05' W 081°04'0 0.0
2017-Dec-02 21:29N 32°05' W 081°04'0 0.0
2017-Dec-02 21:00N 32°05' W 081°04'0 0.0
2017-Dec-02 20:30N 32°05' W 081°04'0 0.0
2017-Dec-02 20:00N 32°05' W 081°04'0 0.0
2017-Dec-02 19:30N 32°05' W 081°04'0 0.0
2017-Dec-02 18:57N 32°05' W 081°04'0 0.0
2017-Dec-02 18:27N 32°05' W 081°04'0 0.0
2017-Dec-02 17:57N 32°05' W 081°04'0 0.0
2017-Dec-02 17:27N 32°05' W 081°04'0 0.0
2017-Dec-02 16:57N 32°05' W 081°04'4 8.3
2017-Dec-02 16:30N 32°07' W 081°08'0 0.1
2017-Dec-02 16:00N 32°07' W 081°08'1 2.7
2017-Dec-02 15:30N 32°06' W 081°07'2 3.5
2017-Dec-02 15:00N 32°07' W 081°08'0 0.2
2017-Dec-02 14:30N 32°07' W 081°08'0 0.0
2017-Dec-02 13:54N 32°07' W 081°08'0 0.0
2017-Dec-02 13:30N 32°07' W 081°08'0 0.0
2017-Dec-02 13:00N 32°07' W 081°08'0 0.0
2017-Dec-02 12:30N 32°07' W 081°08'1 1.2
2017-Dec-02 11:56N 32°08' W 081°08'0 0.1
2017-Dec-02 11:25N 32°08' W 081°08'0 0.4
2017-Dec-02 10:56N 32°08' W 081°09'0 0.0
2017-Dec-02 10:26N 32°08' W 081°09'0 0.3
2017-Dec-02 10:00N 32°08' W 081°08'1 1.8
2017-Dec-02 09:29N 32°07' W 081°08'0 0.0
2017-Dec-02 08:59N 32°07' W 081°08'0 0.0
2017-Dec-02 08:29N 32°07' W 081°08'0 0.0
2017-Dec-02 07:59N 32°07' W 081°08'1 1.4
2017-Dec-02 07:30N 32°08' W 081°08'0 0.0
2017-Dec-02 07:00N 32°08' W 081°08'4 7.2
2017-Dec-02 06:30N 32°05' W 081°05'1 1.8
2017-Dec-02 05:56N 32°05' W 081°04'0 0.8
2017-Dec-02 05:29N 32°05' W 081°04'0 0.0
2017-Dec-02 04:59N 32°05' W 081°04'0 0.0
2017-Dec-02 04:29N 32°05' W 081°04'2 3.8
2017-Dec-02 04:00N 32°05' W 081°06'0 0.3
2017-Dec-02 03:24N 32°05' W 081°06'0 0.4
2017-Dec-02 02:58N 32°05' W 081°06'0 0.9
2017-Dec-02 02:30N 32°05' W 081°06'3 5.4
2017-Dec-02 02:00N 32°05' W 081°03'1 1.8
2017-Dec-02 01:21N 32°05' W 081°04'0 0.0
2017-Dec-02 00:51N 32°05' W 081°04'0 0.0
2017-Dec-02 00:27N 32°05' W 081°04'0 0.0
2017-Dec-01 23:57N 32°05' W 081°04'0 0.0
2017-Dec-01 23:27N 32°05' W 081°04'0 0.0
2017-Dec-01 22:57N 32°05' W 081°04'0 0.0
2017-Dec-01 22:27N 32°05' W 081°04'0 0.0
2017-Dec-01 21:57N 32°05' W 081°04'0 0.0
2017-Dec-01 21:27N 32°05' W 081°04'0 0.0
2017-Dec-01 20:34N 32°05' W 081°04'0 0.0
2017-Dec-01 20:28N 32°05' W 081°04'0 0.0
2017-Dec-01 19:58N 32°05' W 081°04'0 0.0
2017-Dec-01 19:28N 32°05' W 081°04'0 0.0
2017-Dec-01 18:58N 32°05' W 081°04'0 0.0
2017-Dec-01 18:28N 32°05' W 081°04'0 0.0
2017-Dec-01 17:58N 32°05' W 081°04'0 0.0
2017-Dec-01 17:28N 32°05' W 081°04'0 0.0
2017-Dec-01 16:58N 32°05' W 081°04'  
Track history (hours):
 
Tides and Currents Weather Stations Pressure Air Temp Water Temp Dewpoint Dewpoint Depression Visibility Wind Speed Wind Dir Waves Ship Positions

Savannah

Owner: Crescent Towing & Salvage Co Inc, New Orleans, LA. More information available from US FCC via Universal Licensing System and Coast Guard Vessel Documentation Center.

Last reported at 2017-Dec-11 16:58 UTC. Time now 2017-Dec-12 02:51 UTC.
Position N 32°07' W 081°08'.

Length 28 m; draft 4.5 m.

Type: Tug. MMSI: 367316630.

Date/timePositionNaut miles runAvg speedWind from/ knotsBaromVisibWave heightAir tempDewpointWater temp
2017-Dec-11 16:58N 32°07' W 081°08'0 0.2
2017-Dec-11 16:28N 32°07' W 081°08'2 5.5
2017-Dec-11 16:00N 32°05' W 081°06'2 3.2
2017-Dec-11 15:27N 32°05' W 081°04'0 0.0
2017-Dec-11 14:57N 32°05' W 081°04'0 0.0
2017-Dec-11 14:27N 32°05' W 081°04'0 0.0
2017-Dec-11 13:57N 32°05' W 081°04'0 0.0
2017-Dec-11 13:27N 32°05' W 081°04'0 0.0
2017-Dec-11 12:44N 32°05' W 081°04'0 0.0
2017-Dec-11 12:27N 32°05' W 081°04'0 0.0
2017-Dec-11 11:57N 32°05' W 081°04'0 0.0
2017-Dec-11 11:27N 32°05' W 081°04'0 0.0
2017-Dec-11 10:57N 32°05' W 081°04'0 0.0
2017-Dec-11 10:27N 32°05' W 081°04'0 0.0
2017-Dec-11 09:57N 32°05' W 081°04'0 0.0
2017-Dec-11 09:26N 32°05' W 081°04'0 0.0
2017-Dec-11 08:56N 32°05' W 081°04'0 0.0
2017-Dec-11 08:26N 32°05' W 081°04'0 0.0
2017-Dec-11 07:57N 32°05' W 081°04'0 0.0
2017-Dec-11 06:57N 32°05' W 081°04'0 0.0
2017-Dec-11 06:27N 32°05' W 081°04'0 0.0
2017-Dec-11 05:57N 32°05' W 081°04'0 0.0
2017-Dec-11 05:27N 32°05' W 081°04'0 0.0
2017-Dec-11 04:57N 32°05' W 081°04'0 0.0
2017-Dec-11 04:27N 32°05' W 081°04'0 0.0
2017-Dec-11 03:57N 32°05' W 081°04'0 0.0
2017-Dec-11 03:26N 32°05' W 081°04'0 0.0
2017-Dec-11 02:56N 32°05' W 081°04'0 0.0
2017-Dec-11 02:26N 32°05' W 081°04'0 0.0
2017-Dec-11 01:56N 32°05' W 081°04'0 0.0
2017-Dec-11 01:20N 32°05' W 081°04'0 0.0
2017-Dec-11 00:56N 32°05' W 081°04'0 0.0
2017-Dec-11 00:26N 32°05' W 081°04'0 0.0
2017-Dec-10 23:50N 32°05' W 081°04'0 0.0
2017-Dec-10 23:20N 32°05' W 081°04'0 0.0
2017-Dec-10 22:50N 32°05' W 081°04'0 0.0
2017-Dec-10 21:56N 32°05' W 081°04'0 0.0
2017-Dec-10 21:26N 32°05' W 081°04'0 0.0
2017-Dec-10 20:50N 32°05' W 081°04'0 0.0
2017-Dec-10 20:26N 32°05' W 081°04'0 0.0
2017-Dec-10 19:56N 32°05' W 081°04'0 0.0
2017-Dec-10 19:30N 32°05' W 081°04'4 7.5
2017-Dec-10 19:00N 32°07' W 081°08'0 0.7
2017-Dec-10 18:30N 32°07' W 081°08'1 1.3
2017-Dec-10 18:00N 32°08' W 081°08'0 0.3
2017-Dec-10 17:27N 32°08' W 081°08'0 0.9
2017-Dec-10 17:00N 32°08' W 081°08'2 3.0
2017-Dec-10 16:31N 32°07' W 081°07'0 0.2
2017-Dec-10 15:59N 32°07' W 081°07'0 0.0
2017-Dec-10 15:29N 32°07' W 081°07'0 0.0
2017-Dec-10 14:59N 32°07' W 081°07'0 0.0
2017-Dec-10 14:29N 32°07' W 081°07'0 0.0
2017-Dec-10 13:59N 32°07' W 081°07'0 0.0
2017-Dec-10 13:29N 32°07' W 081°07'0 0.0
2017-Dec-10 12:53N 32°07' W 081°07'0 0.0
2017-Dec-10 12:30N 32°07' W 081°07'2 2.9
2017-Dec-10 11:56N 32°08' W 081°09'0 0.0
2017-Dec-10 11:26N 32°08' W 081°09'2 3.5
2017-Dec-10 11:00N 32°07' W 081°07'4 6.7
2017-Dec-10 10:28N 32°05' W 081°04'0 0.0
2017-Dec-10 09:58N 32°05' W 081°04'0 0.0
2017-Dec-10 09:29N 32°05' W 081°04'0 0.0
2017-Dec-10 08:58N 32°05' W 081°04'0 0.0
2017-Dec-10 08:28N 32°05' W 081°04'0 0.0
2017-Dec-10 07:58N 32°05' W 081°04'1 1.7
2017-Dec-10 07:28N 32°05' W 081°03'0 0.0
2017-Dec-10 06:58N 32°05' W 081°03'1 1.9
2017-Dec-10 06:30N 32°05' W 081°02'0 0.9
2017-Dec-10 06:00N 32°05' W 081°02'1 2.5
2017-Dec-10 05:30N 32°05' W 081°04'0 0.0
2017-Dec-10 05:00N 32°05' W 081°04'0 0.0
2017-Dec-10 04:30N 32°05' W 081°04'0 0.0
2017-Dec-10 04:00N 32°05' W 081°04'0 0.0
2017-Dec-10 03:30N 32°05' W 081°04'0 0.0
2017-Dec-10 03:00N 32°05' W 081°04'0 0.0
2017-Dec-10 02:30N 32°05' W 081°04'0 0.0
2017-Dec-10 02:00N 32°05' W 081°04'0 0.0
2017-Dec-10 01:30N 32°05' W 081°04'0 0.0
2017-Dec-10 00:54N 32°05' W 081°04'0 0.0
2017-Dec-10 00:30N 32°05' W 081°04'0 0.0
2017-Dec-09 23:54N 32°05' W 081°04'0 0.0
2017-Dec-09 23:30N 32°05' W 081°04'0 0.0
2017-Dec-09 23:00N 32°05' W 081°04'0 0.0
2017-Dec-09 22:30N 32°05' W 081°04'0 0.0
2017-Dec-09 22:00N 32°05' W 081°04'0 0.0
2017-Dec-09 21:30N 32°05' W 081°04'0 0.0
2017-Dec-09 21:00N 32°05' W 081°04'0 0.0
2017-Dec-09 20:30N 32°05' W 081°04'0 0.0
2017-Dec-09 20:00N 32°05' W 081°04'0 0.0
2017-Dec-09 19:30N 32°05' W 081°04'0 0.0
2017-Dec-09 19:00N 32°05' W 081°04'0 0.0
2017-Dec-09 18:30N 32°05' W 081°04'0 0.0
2017-Dec-09 18:00N 32°05' W 081°04'0 0.0
2017-Dec-09 17:30N 32°05' W 081°04'0 0.0
2017-Dec-09 17:00N 32°05' W 081°04'0 0.0
2017-Dec-09 16:30N 32°05' W 081°04'0 0.0
2017-Dec-09 16:00N 32°05' W 081°04'0 0.0
2017-Dec-09 15:18N 32°05' W 081°04'0 0.0
2017-Dec-09 15:00N 32°05' W 081°04'0 0.0
2017-Dec-09 14:30N 32°05' W 081°04'0 0.0
2017-Dec-09 14:00N 32°05' W 081°04'0 0.0
2017-Dec-09 13:30N 32°05' W 081°04'0 0.0
2017-Dec-09 12:54N 32°05' W 081°04'0 0.0
2017-Dec-09 12:30N 32°05' W 081°04'0 0.0
2017-Dec-09 12:00N 32°05' W 081°04'2 3.5
2017-Dec-09 11:28N 32°05' W 081°06'1 2.2
2017-Dec-09 11:00N 32°06' W 081°07'2 4.5
2017-Dec-09 10:30N 32°08' W 081°08'0 0.5
2017-Dec-09 10:00N 32°08' W 081°08'3 5.4
2017-Dec-09 09:30N 32°06' W 081°06'1 2.2
2017-Dec-09 09:00N 32°05' W 081°05'1 2.3
2017-Dec-09 08:29N 32°05' W 081°04'0 0.0
2017-Dec-09 07:53N 32°05' W 081°04'0 0.0
2017-Dec-09 07:23N 32°05' W 081°04'0 0.0
2017-Dec-09 06:59N 32°05' W 081°04'0 0.0
2017-Dec-09 06:29N 32°05' W 081°04'0 0.0
2017-Dec-09 05:59N 32°05' W 081°04'0 0.0
2017-Dec-09 05:29N 32°05' W 081°04'0 0.0
2017-Dec-09 04:59N 32°05' W 081°04'0 0.0
2017-Dec-09 04:29N 32°05' W 081°04'0 0.0
2017-Dec-09 03:59N 32°05' W 081°04'0 0.0
2017-Dec-09 03:29N 32°05' W 081°04'0 0.0
2017-Dec-09 02:47N 32°05' W 081°04'0 0.0
2017-Dec-09 02:29N 32°05' W 081°04'0 0.0
2017-Dec-09 01:59N 32°05' W 081°04'0 0.0
2017-Dec-09 01:29N 32°05' W 081°04'0 0.0
2017-Dec-09 00:59N 32°05' W 081°04'0 0.0
2017-Dec-09 00:29N 32°05' W 081°04'0 0.0
2017-Dec-08 23:59N 32°05' W 081°04'0 0.0
2017-Dec-08 23:17N 32°05' W 081°04'0 0.0
2017-Dec-08 22:59N 32°05' W 081°04'0 0.0
2017-Dec-08 22:29N 32°05' W 081°04'0 0.0
2017-Dec-08 21:59N 32°05' W 081°04'0 0.0
2017-Dec-08 21:29N 32°05' W 081°04'0 0.0
2017-Dec-08 20:59N 32°05' W 081°04'0 0.0
2017-Dec-08 20:29N 32°05' W 081°04'0 0.0
2017-Dec-08 19:59N 32°05' W 081°04'0 0.0
2017-Dec-08 19:29N 32°05' W 081°04'0 0.0
2017-Dec-08 18:59N 32°05' W 081°04'0 0.0
2017-Dec-08 18:29N 32°05' W 081°04'0 0.0
2017-Dec-08 17:59N 32°05' W 081°04'3 6.1
2017-Dec-08 17:30N 32°06' W 081°07'1 0.9
2017-Dec-08 16:54N 32°07' W 081°07'0 0.0
2017-Dec-08 16:30N 32°07' W 081°07'0 0.0
2017-Dec-08 16:00N 32°07' W 081°07'0 0.0
2017-Dec-08 15:30N 32°07' W 081°07'0 0.0
2017-Dec-08 15:00N 32°07' W 081°07'0 0.0
2017-Dec-08 14:30N 32°07' W 081°07'0 0.0
2017-Dec-08 14:00N 32°07' W 081°07'0 0.0
2017-Dec-08 13:30N 32°07' W 081°07'0 0.0
2017-Dec-08 13:00N 32°07' W 081°07'0 0.0
2017-Dec-08 12:24N 32°07' W 081°07'0 0.0
2017-Dec-08 12:00N 32°07' W 081°07'0 0.0
2017-Dec-08 11:24N 32°07' W 081°07'0 0.0
2017-Dec-08 11:00N 32°07' W 081°07'0 0.0
2017-Dec-08 10:30N 32°07' W 081°07'0 0.0
2017-Dec-08 09:54N 32°07' W 081°07'0 0.0
2017-Dec-08 09:24N 32°07' W 081°07'0 0.0
2017-Dec-08 09:00N 32°07' W 081°07'0 0.0
2017-Dec-08 08:30N 32°07' W 081°07'0 0.0
2017-Dec-08 08:00N 32°07' W 081°07'0 0.0
2017-Dec-08 07:30N 32°07' W 081°07'0 0.0
2017-Dec-08 07:00N 32°07' W 081°07'1 1.6
2017-Dec-08 06:30N 32°06' W 081°07'0 0.8
2017-Dec-08 05:58N 32°06' W 081°06'1 2.7
2017-Dec-08 05:30N 32°05' W 081°05'1 2.0
2017-Dec-08 04:55N 32°05' W 081°04'0 0.0
2017-Dec-08 04:25N 32°05' W 081°04'0 0.0
2017-Dec-08 03:55N 32°05' W 081°04'0 0.0
2017-Dec-08 03:25N 32°05' W 081°04'0 0.0
2017-Dec-08 02:55N 32°05' W 081°04'0 0.0
2017-Dec-08 02:25N 32°05' W 081°04'0 0.0
2017-Dec-08 01:55N 32°05' W 081°04'0 0.0
2017-Dec-08 01:25N 32°05' W 081°04'0 0.0
2017-Dec-08 00:55N 32°05' W 081°04'0 0.0
2017-Dec-08 00:25N 32°05' W 081°04'0 0.0
2017-Dec-07 23:55N 32°05' W 081°04'0 0.0
2017-Dec-07 23:07N 32°05' W 081°04'0 0.0
2017-Dec-07 22:49N 32°05' W 081°04'0 0.0
2017-Dec-07 22:25N 32°05' W 081°04'0 0.0
2017-Dec-07 21:49N 32°05' W 081°04'0 0.0
2017-Dec-07 21:25N 32°05' W 081°04'0 0.0
2017-Dec-07 20:55N 32°05' W 081°04'0 0.0
2017-Dec-07 20:25N 32°05' W 081°04'0 0.0
2017-Dec-07 19:55N 32°05' W 081°04'0 0.0
2017-Dec-07 19:25N 32°05' W 081°04'0 0.0
2017-Dec-07 18:49N 32°05' W 081°04'0 0.0
2017-Dec-07 18:25N 32°05' W 081°04'0 0.0
2017-Dec-07 17:55N 32°05' W 081°04'0 0.0
2017-Dec-07 17:19N 32°05' W 081°04'0 0.0
2017-Dec-07 16:55N 32°05' W 081°04'0 0.0
2017-Dec-07 16:25N 32°05' W 081°04'0 0.0
2017-Dec-07 15:55N 32°05' W 081°04'0 0.0
2017-Dec-07 15:27N 32°05' W 081°04'0 0.0
2017-Dec-07 14:57N 32°05' W 081°04'0 0.0
2017-Dec-07 14:27N 32°05' W 081°04'1 2.5
2017-Dec-07 14:00N 32°05' W 081°05'1 2.3
2017-Dec-07 13:27N 32°06' W 081°06'1 1.6
2017-Dec-07 13:00N 32°05' W 081°06'2 3.1
2017-Dec-07 12:28N 32°05' W 081°04'0 0.0
2017-Dec-07 11:52N 32°05' W 081°04'0 0.0
2017-Dec-07 11:27N 32°05' W 081°04'0 0.0
2017-Dec-07 10:51N 32°05' W 081°04'1 3.9
2017-Dec-07 10:31N 32°05' W 081°05'3 5.6
2017-Dec-07 09:55N 32°07' W 081°08'1 2.9
2017-Dec-07 09:30N 32°07' W 081°07'1 2.7
2017-Dec-07 08:59N 32°05' W 081°06'0 0.0
2017-Dec-07 08:23N 32°05' W 081°06'0 0.0
2017-Dec-07 07:59N 32°05' W 081°06'0 0.0
2017-Dec-07 07:23N 32°05' W 081°06'0 0.0
2017-Dec-07 06:53N 32°05' W 081°06'0 0.0
2017-Dec-07 06:29N 32°05' W 081°06'0 0.0
2017-Dec-07 05:59N 32°05' W 081°06'0 0.0
2017-Dec-07 05:31N 32°05' W 081°06'0 0.4
2017-Dec-07 04:59N 32°05' W 081°06'2 3.3
2017-Dec-07 04:29N 32°07' W 081°07'3 5.7
2017-Dec-07 04:00N 32°05' W 081°05'1 1.5
2017-Dec-07 03:25N 32°05' W 081°04'0 0.0
2017-Dec-07 02:55N 32°05' W 081°04'0 0.0
2017-Dec-07 02:19N 32°05' W 081°04'0 0.0
2017-Dec-07 01:55N 32°05' W 081°04'0 0.0
2017-Dec-07 01:25N 32°05' W 081°04'0 0.0
2017-Dec-07 00:55N 32°05' W 081°04'0 0.0
2017-Dec-07 00:25N 32°05' W 081°04'0 0.0
2017-Dec-06 23:55N 32°05' W 081°04'0 0.0
2017-Dec-06 23:25N 32°05' W 081°04'0 0.0
2017-Dec-06 22:55N 32°05' W 081°04'0 0.0
2017-Dec-06 22:25N 32°05' W 081°04'0 0.0
2017-Dec-06 21:49N 32°05' W 081°04'0 0.0
2017-Dec-06 21:13N 32°05' W 081°04'0 0.0
2017-Dec-06 20:55N 32°05' W 081°04'  
2017-Dec-04 10:23N 32°05' W 081°04'0 0.0
2017-Dec-04 09:47N 32°05' W 081°04'0 0.0
2017-Dec-04 09:29N 32°05' W 081°04'0 0.0
2017-Dec-04 08:59N 32°05' W 081°04'0 0.0
2017-Dec-04 08:29N 32°05' W 081°04'0 0.0
2017-Dec-04 07:59N 32°05' W 081°04'0 0.0
2017-Dec-04 07:29N 32°05' W 081°04'0 0.0
2017-Dec-04 06:59N 32°05' W 081°04'0 0.0
2017-Dec-04 06:29N 32°05' W 081°04'0 0.0
2017-Dec-04 05:59N 32°05' W 081°04'0 0.0
2017-Dec-04 05:29N 32°05' W 081°04'0 0.0
2017-Dec-04 04:59N 32°05' W 081°04'0 0.0
2017-Dec-04 04:29N 32°05' W 081°04'0 0.0
2017-Dec-04 03:59N 32°05' W 081°04'0 0.0
2017-Dec-04 03:29N 32°05' W 081°04'0 0.0
2017-Dec-04 02:59N 32°05' W 081°04'0 0.0
2017-Dec-04 02:29N 32°05' W 081°04'0 0.0
2017-Dec-04 01:59N 32°05' W 081°04'0 0.0
2017-Dec-04 01:29N 32°05' W 081°04'0 0.0
2017-Dec-04 00:53N 32°05' W 081°04'0 0.0
2017-Dec-04 00:17N 32°05' W 081°04'0 0.0
2017-Dec-03 23:59N 32°05' W 081°04'0 0.0
2017-Dec-03 23:23N 32°05' W 081°04'0 0.0
2017-Dec-03 22:41N 32°05' W 081°04'0 0.0
2017-Dec-03 22:29N 32°05' W 081°04'1 2.9
2017-Dec-03 22:00N 32°05' W 081°06'1 2.0
2017-Dec-03 21:30N 32°06' W 081°06'2 4.2
2017-Dec-03 20:57N 32°08' W 081°08'1 1.0
2017-Dec-03 20:28N 32°08' W 081°08'1 3.3
2017-Dec-03 20:00N 32°07' W 081°07'3 5.2
2017-Dec-03 19:30N 32°05' W 081°05'1 2.1
2017-Dec-03 18:59N 32°05' W 081°04'0 0.0
2017-Dec-03 18:29N 32°05' W 081°04'0 0.0
2017-Dec-03 17:59N 32°05' W 081°04'0 0.0
2017-Dec-03 17:29N 32°05' W 081°04'0 0.0
2017-Dec-03 16:59N 32°05' W 081°04'0 0.0
2017-Dec-03 16:29N 32°05' W 081°04'1 1.6
2017-Dec-03 16:00N 32°05' W 081°05'3 6.4
2017-Dec-03 15:30N 32°07' W 081°08'1 1.0
2017-Dec-03 14:56N 32°07' W 081°08'0 0.3
2017-Dec-03 14:30N 32°07' W 081°08'4 8.0
2017-Dec-03 14:00N 32°05' W 081°04'0 0.4
2017-Dec-03 13:30N 32°05' W 081°04'0 0.0
2017-Dec-03 13:00N 32°05' W 081°04'0 0.0
2017-Dec-03 12:30N 32°05' W 081°04'0 0.0
2017-Dec-03 12:00N 32°05' W 081°04'0 0.0
2017-Dec-03 11:30N 32°05' W 081°04'0 0.0
2017-Dec-03 10:53N 32°05' W 081°04'0 0.0
2017-Dec-03 10:30N 32°05' W 081°04'0 0.0
2017-Dec-03 10:00N 32°05' W 081°04'0 0.0
2017-Dec-03 09:30N 32°05' W 081°04'0 0.0
2017-Dec-03 09:00N 32°05' W 081°04'0 0.0
2017-Dec-03 08:24N 32°05' W 081°04'0 0.0
2017-Dec-03 08:00N 32°05' W 081°04'0 0.0
2017-Dec-03 07:30N 32°05' W 081°04'0 0.0
2017-Dec-03 07:00N 32°05' W 081°04'0 0.0
2017-Dec-03 06:30N 32°05' W 081°04'0 0.0
2017-Dec-03 05:54N 32°05' W 081°04'0 0.0
2017-Dec-03 05:30N 32°05' W 081°04'0 0.0
2017-Dec-03 04:59N 32°05' W 081°04'0 0.0
2017-Dec-03 04:30N 32°05' W 081°04'0 0.0
2017-Dec-03 04:00N 32°05' W 081°04'0 0.0
2017-Dec-03 03:30N 32°05' W 081°04'0 0.0
2017-Dec-03 03:00N 32°05' W 081°04'0 0.0
2017-Dec-03 02:30N 32°05' W 081°04'0 0.0
2017-Dec-03 02:00N 32°05' W 081°04'0 0.0
2017-Dec-03 01:30N 32°05' W 081°04'0 0.0
2017-Dec-03 01:00N 32°05' W 081°04'0 0.0
2017-Dec-03 00:24N 32°05' W 081°04'0 0.0
2017-Dec-03 00:00N 32°05' W 081°04'0 0.0
2017-Dec-02 23:30N 32°05' W 081°04'0 0.0
2017-Dec-02 23:00N 32°05' W 081°04'0 0.0
2017-Dec-02 22:30N 32°05' W 081°04'0 0.0
2017-Dec-02 21:59N 32°05' W 081°04'0 0.0
2017-Dec-02 21:29N 32°05' W 081°04'0 0.0
2017-Dec-02 21:00N 32°05' W 081°04'0 0.0
2017-Dec-02 20:30N 32°05' W 081°04'0 0.0
2017-Dec-02 20:00N 32°05' W 081°04'0 0.0
2017-Dec-02 19:30N 32°05' W 081°04'0 0.0
2017-Dec-02 18:57N 32°05' W 081°04'0 0.0
2017-Dec-02 18:27N 32°05' W 081°04'0 0.0
2017-Dec-02 17:57N 32°05' W 081°04'0 0.0
2017-Dec-02 17:27N 32°05' W 081°04'0 0.0
2017-Dec-02 16:57N 32°05' W 081°04'4 8.3
2017-Dec-02 16:30N 32°07' W 081°08'0 0.1
2017-Dec-02 16:00N 32°07' W 081°08'1 2.7
2017-Dec-02 15:30N 32°06' W 081°07'2 3.5
2017-Dec-02 15:00N 32°07' W 081°08'0 0.2
2017-Dec-02 14:30N 32°07' W 081°08'0 0.0
2017-Dec-02 13:54N 32°07' W 081°08'0 0.0
2017-Dec-02 13:30N 32°07' W 081°08'0 0.0
2017-Dec-02 13:00N 32°07' W 081°08'0 0.0
2017-Dec-02 12:30N 32°07' W 081°08'1 1.2
2017-Dec-02 11:56N 32°08' W 081°08'0 0.1
2017-Dec-02 11:25N 32°08' W 081°08'0 0.4
2017-Dec-02 10:56N 32°08' W 081°09'0 0.0
2017-Dec-02 10:26N 32°08' W 081°09'0 0.3
2017-Dec-02 10:00N 32°08' W 081°08'1 1.8
2017-Dec-02 09:29N 32°07' W 081°08'0 0.0
2017-Dec-02 08:59N 32°07' W 081°08'0 0.0
2017-Dec-02 08:29N 32°07' W 081°08'0 0.0
2017-Dec-02 07:59N 32°07' W 081°08'1 1.4
2017-Dec-02 07:30N 32°08' W 081°08'0 0.0
2017-Dec-02 07:00N 32°08' W 081°08'4 7.2
2017-Dec-02 06:30N 32°05' W 081°05'1 1.8
2017-Dec-02 05:56N 32°05' W 081°04'0 0.8
2017-Dec-02 05:29N 32°05' W 081°04'0 0.0
2017-Dec-02 04:59N 32°05' W 081°04'0 0.0
2017-Dec-02 04:29N 32°05' W 081°04'2 3.8
2017-Dec-02 04:00N 32°05' W 081°06'0 0.3
2017-Dec-02 03:24N 32°05' W 081°06'0 0.4
2017-Dec-02 02:58N 32°05' W 081°06'0 0.9
2017-Dec-02 02:30N 32°05' W 081°06'3 5.4
2017-Dec-02 02:00N 32°05' W 081°03'1 1.8
2017-Dec-02 01:21N 32°05' W 081°04'0 0.0
2017-Dec-02 00:51N 32°05' W 081°04'0 0.0
2017-Dec-02 00:27N 32°05' W 081°04'0 0.0
2017-Dec-01 23:57N 32°05' W 081°04'0 0.0
2017-Dec-01 23:27N 32°05' W 081°04'0 0.0
2017-Dec-01 22:57N 32°05' W 081°04'0 0.0
2017-Dec-01 22:27N 32°05' W 081°04'0 0.0
2017-Dec-01 21:57N 32°05' W 081°04'0 0.0
2017-Dec-01 21:27N 32°05' W 081°04'0 0.0
2017-Dec-01 20:34N 32°05' W 081°04'0 0.0
2017-Dec-01 20:28N 32°05' W 081°04'0 0.0
2017-Dec-01 19:58N 32°05' W 081°04'0 0.0
2017-Dec-01 19:28N 32°05' W 081°04'0 0.0
2017-Dec-01 18:58N 32°05' W 081°04'0 0.0
2017-Dec-01 18:28N 32°05' W 081°04'0 0.0
2017-Dec-01 17:58N 32°05' W 081°04'0 0.0
2017-Dec-01 17:28N 32°05' W 081°04'0 0.0
2017-Dec-01 16:58N 32°05' W 081°04'  

Dump ship's entire track history